Latest Coastal Weather Observations for Eucla

IDS60701

Issued at 12:51 pm CDT Tuesday 28 March 2017 (issued every 10 minutes, with the page automatically refreshed every 10 minutes)

About coastal observations | Map of coastal stations | Coastal observations for SA | Marine services | Other Formats
Station Details ID: 011003 Name: EUCLA Lat: -31.68 Lon: 128.90 Height: 93.1 m
Data from the previous 72 hours. | See also: Recent months at Eucla
Date/Time
CDT
Temp
°C
Wind Pressure Rain since
9am
mm
Weather Cloud Vis
km
Sea
Height
m
Swell
Dir  Spd
kts
Gust
kts
hPa Trend Height
m
Period
s
Dir
28/12:30pm 23.7 NW 5 8 1017.4 - 0.0 - - - - - - -
28/12:00pm 23.2 NW 5 8 1017.8 - 0.0 - - - - - - -
28/11:30am 22.3 N 6 10 1018.3 - 0.0 Fine Clear 40 - - - -
28/11:00am 21.2 N 6 9 1018.4 - 0.0 - - - - - - -
28/10:30am 19.3 N 6 9 1018.3 - 0.0 - - - - - - -
28/10:00am 17.4 N 8 9 1018.4 - 0.0 - - - - - - -
28/09:30am 14.9 N 6 7 1018.2 - 0.0 - - - - - - -
28/09:00am 12.1 N 6 8 1018.1 - 0.0 - - - - - - -
28/08:30am 10.3 N 6 7 1018.0 - 0.0 - - - - - - -
28/08:00am 10.1 NNW 6 7 1018.1 - 0.0 - - - - - - -
28/07:30am 10.3 NNW 6 7 1017.9 - 0.0 - - - - - - -
28/07:00am 10.2 NNW 6 6 1017.6 - 0.0 - - - - - - -
28/06:30am 10.3 NNW 5 6 1017.5 - 0.0 - - - - - - -
28/06:00am 10.1 NNW 5 6 1017.2 - 0.0 - - - - - - -
28/05:30am 10.4 NNW 6 6 1017.4 - 0.0 - - - - - - -
28/05:00am 10.2 N 6 7 1017.4 - 0.0 - - - - - - -
28/04:30am 10.1 N 5 6 1017.5 - 0.0 - - - - - - -
28/04:00am 10.4 N 5 6 1017.6 - 0.0 - - - - - - -
28/03:30am 10.7 N 5 5 1017.8 - 0.0 - - - - - - -
28/03:00am 10.5 CALM 0 0 1017.8 - 0.0 - - - - - - -
28/02:30am 11.2 CALM 0 0 1018.2 - 0.0 - - - - - - -
28/02:00am 11.0 CALM 0 0 1018.3 - 0.0 - - - - - - -
28/01:30am 12.7 SSE 3 3 1018.4 - 0.0 - - - - - - -
28/01:00am 13.6 S 3 4 1018.8 - 0.0 - - - - - - -
28/12:30am 15.5 S 4 6 1019.0 - 0.0 - - - - - - -
28/12:00am 15.7 SSE 4 6 1019.3 - 0.0 - - - - - - -
 
Date/Time
CDT
Temp
°C
Wind Pressure Rain since
9am
mm
Weather Cloud Vis
km
Sea
Height
m
Swell
Dir  Spd
kts
Gust
kts
hPa Trend Height
m
Period
s
Dir
27/11:30pm 16.2 SSE 4 6 1019.2 - 0.0 - - - - - - -
27/11:00pm 16.3 SSE 5 8 1019.3 - 0.0 - - - - - - -
27/10:30pm 16.5 S 6 8 1019.0 - 0.0 - - - - - - -
27/10:00pm 16.5 S 6 8 1018.9 - 0.0 - - - - - - -
27/09:30pm 16.8 S 6 8 1018.8 - 0.0 - - - - - - -
27/09:00pm 17.0 S 6 8 1018.5 - 0.0 - - - - - - -
27/08:30pm 17.4 SSE 5 8 1018.4 - 0.0 - - - - - - -
27/08:00pm 18.2 S 6 9 1018.3 - 0.0 - - - - - - -
27/07:30pm 19.1 SSE 8 12 1018.3 - 0.0 - - - - - - -
27/07:00pm 20.0 S 8 10 1018.3 - 0.0 - - - - - - -
27/06:30pm 20.4 S 7 12 1018.2 - 0.0 - - - - - - -
27/06:00pm 21.0 SSE 8 11 1018.1 - 0.0 - - - - - - -
27/05:30pm 21.5 S 8 11 1018.3 - 0.0 Haze Mostly clear 25 - - - -
27/05:00pm 22.1 S 8 14 1018.3 - 0.0 - - - - - - -
27/04:30pm 22.0 S 9 13 1018.4 - 0.0 - - - - - - -
27/04:00pm 22.3 S 9 15 1018.4 - 0.0 - - - - - - -
27/03:30pm 22.7 S 9 14 1018.8 - 0.0 - - - - - - -
27/03:00pm 22.7 S 11 15 1019.2 - 0.0 - - - - - - -
27/02:30pm 22.7 S 9 14 1019.7 - 0.0 - - - - - - -
27/02:00pm 22.6 SSW 10 17 1019.9 - 0.0 - - - - - - -
27/01:30pm 21.8 S 10 18 1020.2 - 0.0 - - - - - - -
27/01:00pm 22.5 SSW 11 18 1020.2 - 0.0 - - - - - - -
27/12:30pm 22.1 SSW 10 15 1020.2 - 0.0 - - - - - - -
27/12:00pm 21.9 SSW 10 18 1020.2 - 0.0 - - - - - - -
27/11:30am 21.0 SSW 12 19 1020.3 - 0.0 Haze Mostly clear 25 - - - -
27/11:00am 21.2 SSW 14 23 1020.1 - 0.0 - - - - - - -
27/10:30am 20.4 SW 12 20 1019.5 - 0.0 - - - - - - -
27/10:00am 19.8 SW 12 19 1019.2 - 0.0 - - - - - - -
27/09:30am 19.1 SW 9 17 1018.7 - 0.0 - - - - - - -
27/09:00am 17.0 SW 8 14 1018.5 - 0.0 - - - - - - -
27/08:30am 16.5 SW 7 10 1018.1 - 0.0 - - - - - - -
27/08:00am 16.3 SW 8 13 1017.8 - 0.0 - - - - - - -
27/07:30am 16.3 SW 8 14 1017.6 - 0.0 - - - - - - -
27/07:00am 16.5 SW 7 12 1017.2 - 0.0 - - - - - - -
27/06:30am 16.4 SW 7 10 1016.7 - 0.0 - - - - - - -
27/06:00am 17.4 SW 8 13 1016.4 - 0.0 - - - - - - -
27/05:30am 17.8 SW 7 13 1016.0 - 0.0 - - - - - - -
27/05:00am 18.1 SW 8 12 1015.6 - 0.0 - - - - - - -
27/04:30am 18.6 SW 8 12 1015.6 - 0.0 - - - - - - -
27/04:00am 18.4 SSW 9 15 1015.6 - 0.0 - - - - - - -
27/03:30am 18.6 SSW 9 13 1015.4 - 0.0 - - - - - - -
27/03:00am 19.3 SSW 10 17 1015.3 - 0.0 - - - - - - -
27/02:30am 19.4 SSW 13 22 1015.2 - 0.0 - - - - - - -
27/02:00am 19.3 SSW 12 21 1014.9 - 0.0 - - - - - - -
27/01:30am 19.2 SSW 13 20 1015.0 - 0.0 - - - - - - -
27/01:21am 19.3 SSW 15 25 1015.0 - 0.0 - - - - - - -
27/01:00am 19.3 SSW 14 20 1014.7 - 0.0 - - - - - - -
27/12:30am 19.5 SSW 14 21 1014.2 - 0.0 - - - - - - -
27/12:00am 19.7 SSW 14 20 1014.0 - 0.0 - - - - - - -
 
Date/Time
CDT
Temp
°C
Wind Pressure Rain since
9am
mm
Weather Cloud Vis
km
Sea
Height
m
Swell
Dir  Spd
kts
Gust
kts
hPa Trend Height
m
Period
s
Dir
26/11:30pm 20.1 SSW 15 25 1013.6 - 0.0 - - - - - - -
26/11:28pm 20.1 SSW 15 25 1013.6 - 0.0 - - - - - - -
26/11:00pm 20.5 SSW 13 20 1013.4 - 0.0 - - - - - - -
26/10:30pm 20.8 SSW 13 20 1012.9 - 0.0 - - - - - - -
26/10:00pm 21.1 SSW 14 22 1012.1 - 0.0 - - - - - - -
26/09:33pm 21.3 SW 15 25 1011.5 - 0.0 - - - - - - -
26/09:30pm 21.6 SW 14 21 1011.5 - 0.0 - - - - - - -
26/09:00pm 22.2 SSW 14 23 1010.8 - 0.0 - - - - - - -
26/08:30pm 22.4 SSW 9 15 1009.7 - 0.0 - - - - - - -
26/08:00pm 22.9 SW 9 14 1008.6 - 0.0 - - - - - - -
26/07:30pm 24.1 SW 9 16 1007.8 - 0.0 - - - - - - -
26/07:00pm 25.0 SW 9 15 1007.1 - 0.0 - - - - - - -
26/06:30pm 26.1 SSW 10 14 1006.4 - 0.0 - - - - - - -
26/06:00pm 26.1 SSW 11 15 1005.8 - 0.0 - - - - - - -
26/05:30pm 27.3 SSW 9 16 1005.3 - 0.0 Fine Mostly clear 40 - - - -
26/05:15pm 28.2 SSW 10 15 1005.1 - 0.0 - - - - - - -
26/05:00pm 33.3 WSW 13 20 1004.9 - 0.0 - - - - - - -
26/04:30pm 33.8 WNW 16 26 1004.4 - 0.0 - - - - - - -
26/04:26pm 33.8 W 16 26 1004.5 - 0.0 - - - - - - -
26/04:00pm 34.7 W 14 22 1004.2 - 0.0 - - - - - - -
26/03:33pm 35.6 W 15 26 1003.9 - 0.0 - - - - - - -
26/03:30pm 35.4 W 15 23 1004.0 - 0.0 - - - - - - -
26/03:00pm 37.1 WNW 16 24 1003.8 - 0.0 - - - - - - -
26/02:42pm 37.0 NW 16 26 1003.9 - 0.0 - - - - - - -
26/02:30pm 37.2 WNW 16 25 1003.8 - 0.0 - - - - - - -
26/02:29pm 37.0 WNW 15 25 1003.8 - 0.0 - - - - - - -
26/02:00pm 37.0 NW 15 23 1004.2 - 0.0 - - - - - - -
26/01:30pm 36.5 NW 15 21 1004.5 - 0.0 - - - - - - -
26/01:00pm 33.9 NW 13 20 1004.6 - 0.0 - - - - - - -
26/12:30pm 32.1 NW 14 21 1004.7 - 0.0 - - - - - - -
26/12:00pm 30.6 NNW 12 19 1005.0 - 0.0 - - - - - - -
26/11:30am 28.0 N 11 16 1005.3 - 3.6 Fine Mostly clear 40 - - - -
26/11:00am 27.3 N 13 18 1005.2 - 3.6 - - - - - - -
26/10:30am 24.6 NNE 13 19 1005.2 - 3.6 - - - - - - -
26/10:00am 23.1 NNE 8 13 1005.6 - 3.4 - - - - - - -
26/09:30am 21.2 NNE 8 11 1005.6 - 3.4 - - - - - - -
26/09:00am 20.8 NNE 5 7 1006.0 - 3.4 - - - - - - -
26/08:30am 20.0 NE 7 9 1005.8 - 3.4 - - - - - - -
26/08:00am 20.2 ENE 7 11 1005.8 - 3.4 - - - - - - -
26/07:30am 20.5 E 7 9 1006.2 - 3.4 - - - - - - -
26/07:00am 20.6 ESE 8 13 1006.2 - 3.4 - - - - - - -
26/06:30am 20.7 SE 8 12 1006.2 - 3.4 - - - - - - -
26/06:00am 20.8 SSE 4 7 1006.4 - 3.4 - - - - - - -
26/05:30am 21.8 ENE 11 17 1005.7 - 3.4 Recent precip. - - - - - -
26/05:00am 20.8 ENE 12 17 1006.1 - 3.4 - - - - - - -
26/04:30am 20.4 NE 11 17 1007.8 - 3.0 - - - - - - -
26/04:00am 21.7 E 7 12 1007.2 - 0.0 - - - - - - -
26/03:30am 21.1 NE 6 9 1007.5 - 0.0 - - - - - - -
26/03:00am 20.4 ENE 6 10 1007.7 - 0.0 - - - - - - -
26/02:30am 20.1 ENE 6 9 1008.2 - 0.0 - - - - - - -
26/02:00am 20.1 E 6 8 1008.6 - 0.0 - - - - - - -
26/01:30am 20.1 E 6 10 1009.2 - 0.0 - - - - - - -
26/01:00am 20.0 ESE 6 8 1009.6 - 0.0 - - - - - - -
26/12:30am 20.1 E 8 13 1009.5 - 0.0 - - - - - - -
26/12:00am 20.1 E 8 13 1010.0 - 0.0 - - - - - - -
 
Date/Time
CDT
Temp
°C
Wind Pressure Rain since
9am
mm
Weather Cloud Vis
km
Sea
Height
m
Swell
Dir  Spd
kts
Gust
kts
hPa Trend Height
m
Period
s
Dir
25/11:30pm 20.0 E 7 13 1010.6 - 0.0 - - - - - - -
25/11:00pm 20.1 E 7 11 1011.1 - 0.0 - - - - - - -
25/10:30pm 20.2 ESE 7 10 1011.2 - 0.0 - - - - - - -
25/10:00pm 20.2 E 8 15 1010.6 - 0.0 - - - - - - -
25/09:30pm 20.2 E 10 16 1009.9 - 0.0 - - - - - - -
25/09:00pm 20.2 E 9 15 1010.1 - 0.0 - - - - - - -
25/08:30pm 20.1 E 11 15 1009.7 - 0.0 - - - - - - -
25/08:00pm 20.3 ESE 8 14 1010.4 - 0.0 - - - - - - -
25/07:30pm 20.4 E 8 14 1011.2 - 0.0 - - - - - - -
25/07:00pm 20.4 E 8 15 1010.4 - 0.0 - - - - - - -
25/06:30pm 20.5 E 8 15 1010.1 - 0.0 - - - - - - -
25/06:00pm 20.5 E 9 13 1010.9 - 0.0 - - - - - - -
25/05:30pm 20.5 ESE 10 16 1010.7 - 0.0 Drizzle Cloudy 5 - - - -
25/05:00pm 20.4 E 8 14 1010.7 - 0.0 - - - - - - -
25/04:30pm 20.4 E 11 16 1010.6 - 0.0 - - - - - - -
25/04:00pm 20.4 ESE 10 19 1010.3 - 0.0 - - - - - - -
25/03:30pm 20.5 SE 7 11 1012.3 - 0.0 - - - - - - -

Other Formats:

Comma delimited format used in spreadsheet applications
http://www.bom.gov.au/fwo/IDS60701/IDS60701.94647.axf

JavaScript Object Notation format (JSON) in row-major order
http://www.bom.gov.au/fwo/IDS60701/IDS60701.94647.json